Terminal Aerodrome Forecast
Issued by NWS North Platte, NE

Home | Current Version | Previous Version | Text Only | Print | Product List | Glossary Off
Versions: 1 2 3 4 5 6 7 8 9 10 11 12 13 14 15 16 17 18

000
FTUS43 KLBF 181149 RRA
TAFVTN
TAF
KVTN 181149Z 1812/1912 33014G19KT P6SM -SN SCT007 OVC050
      TEMPO 1812/1814 BKN007 OVC050
     FM181400 32016G24KT P6SM OVC010
     FM182000 33016G23KT P6SM BKN025
     FM182200 33014G20KT P6SM BKN045
     FM190000 33010KT P6SM SCT050
     FM191100 VRB03KT P6SM SCT035=

USA.gov is the U.S. government's official web portal to all federal, state and local government web resources and services.